createdAt,value
2019-05-25T00:02:14.596Z,65.60
2019-05-25T00:04:43.196Z,65.70
2019-05-25T00:07:11.892Z,65.20
2019-05-25T00:09:40.465Z,64.90
2019-05-25T00:12:09.279Z,64.50
2019-05-25T00:14:37.953Z,63.30
2019-05-25T00:17:06.583Z,62.90
2019-05-25T00:19:35.283Z,61.90
2019-05-25T00:22:03.979Z,61.80
2019-05-25T00:24:32.471Z,60.60
2019-05-25T00:27:01.573Z,60.00
2019-05-25T00:29:30.158Z,59.30
2019-05-25T00:31:58.802Z,59.80
2019-05-25T00:34:27.370Z,60.80
2019-05-25T00:36:56.046Z,63.50
2019-05-25T00:39:24.633Z,66.60
2019-05-25T00:41:53.430Z,67.20
2019-05-25T00:44:21.998Z,68.30
2019-05-25T00:46:50.560Z,69.00
2019-05-25T00:49:19.238Z,68.70
2019-05-25T00:51:47.955Z,68.90
2019-05-25T00:54:27.503Z,69.60
2019-05-25T00:56:46.741Z,68.30
2019-05-25T00:59:15.553Z,68.70
2019-05-25T01:01:44.100Z,68.90
2019-05-25T01:04:12.584Z,67.70
2019-05-25T01:06:41.196Z,68.10
2019-05-25T01:09:09.980Z,67.90
2019-05-25T01:11:38.528Z,68.00
2019-05-25T01:14:07.161Z,67.20
2019-05-25T01:16:35.731Z,68.20
2019-05-25T01:19:04.453Z,65.80
2019-05-25T01:21:33.456Z,65.20
2019-05-25T01:24:02.148Z,63.70
2019-05-25T01:26:30.718Z,63.60
2019-05-25T01:28:59.359Z,63.80
2019-05-25T01:31:28.016Z,62.60
2019-05-25T01:33:56.567Z,62.00
2019-05-25T01:36:25.139Z,60.90
2019-05-25T01:38:54.322Z,61.00
2019-05-25T01:41:22.861Z,62.10
2019-05-25T01:43:51.380Z,64.70
2019-05-25T01:46:20.003Z,66.80
2019-05-25T01:48:48.543Z,66.60
2019-05-25T01:51:17.047Z,67.20
2019-05-25T01:53:45.623Z,69.80
2019-05-25T01:56:14.108Z,68.50
2019-05-25T01:58:42.690Z,69.10
2019-05-25T02:01:11.387Z,67.90
2019-05-25T02:03:40.033Z,68.50
2019-05-25T02:06:08.617Z,69.60
2019-05-25T02:08:37.228Z,68.90
2019-05-25T02:11:05.723Z,68.70
2019-05-25T02:13:34.363Z,68.00
2019-05-25T02:16:02.848Z,69.10
2019-05-25T02:18:31.403Z,69.20
2019-05-25T02:20:59.910Z,70.60
2019-05-25T02:23:28.467Z,69.60
2019-05-25T02:25:57.015Z,69.50
2019-05-25T02:28:25.569Z,69.10
2019-05-25T02:30:54.123Z,67.90
2019-05-25T02:33:22.674Z,68.90
2019-05-25T02:35:51.253Z,68.70
2019-05-25T02:38:19.798Z,66.40
2019-05-25T02:40:48.350Z,67.50
2019-05-25T02:43:16.857Z,66.70
2019-05-25T02:45:45.571Z,68.50
2019-05-25T02:48:14.185Z,67.80
2019-05-25T02:50:42.815Z,67.60
2019-05-25T02:53:11.293Z,67.10
2019-05-25T02:55:40.010Z,67.90
2019-05-25T02:58:08.591Z,66.20
2019-05-25T03:00:37.263Z,70.40
2019-05-25T03:03:06.098Z,69.70
2019-05-25T03:05:34.802Z,69.90
2019-05-25T03:08:03.808Z,71.20
2019-05-25T03:10:33.100Z,70.90
2019-05-25T03:13:03.479Z,73.30
2019-05-25T03:15:32.288Z,72.80
2019-05-25T03:18:01.118Z,72.00
2019-05-25T03:20:29.727Z,72.40
2019-05-25T03:22:58.230Z,70.30
2019-05-25T03:25:26.853Z,71.50
2019-05-25T03:27:55.439Z,70.60
2019-05-25T03:30:29.945Z,70.20
2019-05-25T03:32:58.475Z,72.30
2019-05-25T03:35:27.204Z,74.60
2019-05-25T03:37:55.968Z,75.50
2019-05-25T03:40:24.524Z,74.10
2019-05-25T03:42:53.529Z,73.50
2019-05-25T03:45:22.109Z,73.10
2019-05-25T03:47:50.742Z,72.40
2019-05-25T03:50:19.584Z,73.20
2019-05-25T03:52:48.216Z,73.70
2019-05-25T03:55:16.899Z,71.80
2019-05-25T03:57:45.474Z,70.40
2019-05-25T04:00:14.579Z,69.30
2019-05-25T04:02:43.284Z,69.20
2019-05-25T04:05:12.016Z,69.10
2019-05-25T04:07:40.535Z,70.40
2019-05-25T04:10:09.208Z,71.80
2019-05-25T04:12:37.855Z,70.80
2019-05-25T04:15:07.447Z,69.60
2019-05-25T04:17:35.957Z,69.30
2019-05-25T04:20:06.616Z,68.60
2019-05-25T04:22:35.205Z,67.90
2019-05-25T04:25:04.587Z,67.30
2019-05-25T04:27:33.286Z,68.60
2019-05-25T04:30:01.923Z,69.80
2019-05-25T04:32:30.482Z,71.80
2019-05-25T04:34:59.087Z,70.60
2019-05-25T04:37:27.711Z,70.00
2019-05-25T04:39:56.187Z,69.30
2019-05-25T04:42:24.695Z,70.70
2019-05-25T04:44:53.212Z,76.00
2019-05-25T04:47:27.010Z,75.40
2019-05-25T04:49:52.111Z,75.00
2019-05-25T04:52:20.668Z,73.10
2019-05-25T04:54:49.222Z,71.90
2019-05-25T04:57:17.962Z,75.60
2019-05-25T04:59:46.447Z,74.60
2019-05-25T05:02:15.101Z,74.80
2019-05-25T05:04:43.657Z,74.40
2019-05-25T05:07:12.205Z,73.80
2019-05-25T05:09:40.708Z,72.60
2019-05-25T05:12:09.298Z,73.50
2019-05-25T05:14:37.880Z,71.70
2019-05-25T05:17:06.587Z,74.20
2019-05-25T05:19:35.118Z,73.80
2019-05-25T05:22:05.952Z,73.30
2019-05-25T05:24:34.129Z,72.60
2019-05-25T05:27:02.697Z,73.10
2019-05-25T05:29:31.328Z,72.90
2019-05-25T05:31:59.953Z,74.20
2019-05-25T05:34:28.606Z,75.60
2019-05-25T05:36:57.244Z,76.20
2019-05-25T05:39:28.010Z,76.50
2019-05-25T05:41:58.852Z,74.70
2019-05-25T05:44:28.277Z,74.80
2019-05-25T05:46:59.118Z,75.10
2019-05-25T05:49:29.585Z,73.50
2019-05-25T05:52:01.174Z,74.70
2019-05-25T05:54:31.083Z,74.30
2019-05-25T05:57:11.633Z,74.20
2019-05-25T05:59:29.967Z,72.70
2019-05-25T06:01:58.610Z,73.00
2019-05-25T06:04:27.189Z,73.90
2019-05-25T06:06:55.746Z,73.40
2019-05-25T06:09:24.328Z,72.70
2019-05-25T06:11:52.980Z,71.80
2019-05-25T06:14:21.599Z,72.00
2019-05-25T06:16:50.149Z,71.80
2019-05-25T06:19:18.718Z,71.70
2019-05-25T06:21:47.274Z,71.50
2019-05-25T06:24:15.761Z,72.40
2019-05-25T06:26:44.363Z,74.90
2019-05-25T06:29:13.097Z,78.90
2019-05-25T06:31:41.667Z,79.90
2019-05-25T06:34:10.247Z,80.30
2019-05-25T06:36:38.852Z,80.00
2019-05-25T06:39:08.302Z,77.50
2019-05-25T06:41:36.872Z,77.10
2019-05-25T06:44:05.909Z,75.60
2019-05-25T06:46:34.515Z,75.20
2019-05-25T06:49:03.155Z,75.10
2019-05-25T06:51:31.708Z,75.80
2019-05-25T06:54:00.212Z,73.30
2019-05-25T06:56:29.251Z,74.50
2019-05-25T06:58:57.739Z,74.40
2019-05-25T07:01:26.293Z,74.70
2019-05-25T07:03:55.346Z,75.10
2019-05-25T07:06:23.884Z,74.90
2019-05-25T07:08:52.423Z,72.80
2019-05-25T07:11:20.925Z,71.10
2019-05-25T07:13:49.703Z,70.80
2019-05-25T07:16:18.327Z,71.70
2019-05-25T07:18:46.896Z,71.50
2019-05-25T07:21:15.531Z,71.30
2019-05-25T07:23:44.101Z,72.60
2019-05-25T07:26:12.752Z,72.30
2019-05-25T07:28:41.799Z,71.90
2019-05-25T07:31:10.406Z,72.00
2019-05-25T07:33:39.109Z,70.80
2019-05-25T07:36:08.076Z,70.60
2019-05-25T07:38:36.893Z,69.70
2019-05-25T07:41:05.491Z,70.00
2019-05-25T07:43:34.040Z,68.60
2019-05-25T07:46:02.517Z,68.50
2019-05-25T07:48:31.087Z,67.10
2019-05-25T07:50:59.724Z,67.90
2019-05-25T07:53:28.288Z,66.60
2019-05-25T07:55:56.815Z,67.60
2019-05-25T07:58:25.385Z,68.60
2019-05-25T08:00:53.928Z,67.60
2019-05-25T08:03:22.758Z,67.90
2019-05-25T08:05:51.369Z,67.20
2019-05-25T08:08:19.873Z,67.50
2019-05-25T08:10:48.516Z,66.20
2019-05-25T08:13:17.010Z,64.70
2019-05-25T08:15:45.504Z,64.00
2019-05-25T08:18:14.105Z,64.00
2019-05-25T08:20:42.778Z,64.20
2019-05-25T08:23:11.528Z,65.50
2019-05-25T08:25:40.171Z,67.20
2019-05-25T08:28:08.762Z,67.70
2019-05-25T08:30:37.368Z,68.20
2019-05-25T08:33:06.050Z,67.80
2019-05-25T08:35:34.711Z,67.30
2019-05-25T08:38:03.305Z,66.20
2019-05-25T08:40:31.939Z,66.00
2019-05-25T08:43:00.532Z,66.00
2019-05-25T08:45:29.196Z,64.00
2019-05-25T08:47:58.713Z,62.80
2019-05-25T08:50:37.986Z,61.60
2019-05-25T08:52:57.432Z,62.20
2019-05-25T08:55:26.346Z,62.40
2019-05-25T08:57:54.901Z,61.80
2019-05-25T09:00:23.719Z,59.90
2019-05-25T09:02:52.329Z,59.90
2019-05-25T09:05:20.991Z,59.90
2019-05-25T09:07:49.531Z,58.40
2019-05-25T09:10:19.045Z,57.50
2019-05-25T09:12:47.622Z,55.50
2019-05-25T09:15:23.283Z,55.90
2019-05-25T09:17:51.872Z,56.00
2019-05-25T09:20:20.556Z,56.80
2019-05-25T09:22:49.213Z,56.50
2019-05-25T09:25:18.061Z,55.00
2019-05-25T09:27:46.753Z,52.60
2019-05-25T09:30:15.771Z,52.70
2019-05-25T09:32:44.317Z,53.70
2019-05-25T09:35:13.027Z,53.70
2019-05-25T09:37:41.584Z,52.40
2019-05-25T09:40:10.796Z,51.70
2019-05-25T09:42:39.939Z,54.00
2019-05-25T09:45:09.352Z,53.40
2019-05-25T09:47:37.974Z,53.00
2019-05-25T09:50:07.480Z,52.30
2019-05-25T09:52:36.124Z,51.40
2019-05-25T09:55:09.572Z,52.60
2019-05-25T09:57:41.431Z,53.50
2019-05-25T10:00:13.601Z,52.30
2019-05-25T10:02:43.087Z,52.00
2019-05-25T10:05:12.407Z,53.00
2019-05-25T10:07:40.986Z,53.30
2019-05-25T10:10:12.276Z,52.00
2019-05-25T10:12:40.924Z,48.90
2019-05-25T10:15:10.556Z,49.50
2019-05-25T10:17:39.190Z,49.90
2019-05-25T10:20:08.377Z,50.00
2019-05-25T10:22:36.995Z,50.00
2019-05-25T10:25:09.364Z,50.70
2019-05-25T10:27:38.014Z,48.00
2019-05-25T10:30:07.922Z,46.70
2019-05-25T10:32:36.494Z,45.80
2019-05-25T10:35:07.243Z,44.60
2019-05-25T10:37:55.205Z,46.50
2019-05-25T10:40:24.028Z,49.00
2019-05-25T10:42:52.578Z,48.20
2019-05-25T10:45:21.994Z,49.60
2019-05-25T10:47:50.632Z,49.40
2019-05-25T10:50:19.546Z,47.80
2019-05-25T10:52:48.119Z,48.80
2019-05-25T10:55:17.128Z,47.00
2019-05-25T10:57:45.704Z,46.30
2019-05-25T11:00:15.211Z,43.40
2019-05-25T11:02:43.875Z,45.20
2019-05-25T11:05:14.483Z,45.60
2019-05-25T11:07:43.288Z,45.90
2019-05-25T11:10:12.594Z,46.20
2019-05-25T11:12:41.337Z,44.60
2019-05-25T11:15:10.901Z,46.60
2019-05-25T11:17:39.773Z,46.00
2019-05-25T11:20:09.396Z,42.50
2019-05-25T11:22:38.179Z,39.90
2019-05-25T11:25:08.265Z,41.30
2019-05-25T11:27:36.918Z,41.10
2019-05-25T11:30:09.387Z,41.90
2019-05-25T11:32:37.516Z,40.70
2019-05-25T11:35:07.223Z,41.90
2019-05-25T11:37:36.009Z,41.70
2019-05-25T11:40:08.367Z,42.50
2019-05-25T11:42:37.120Z,43.70
2019-05-25T11:45:07.414Z,42.30
2019-05-25T11:47:36.168Z,41.70
2019-05-25T11:50:09.355Z,34.90
2019-05-25T11:52:38.253Z,35.60
2019-05-25T11:55:10.319Z,37.20
2019-05-25T11:57:38.966Z,36.90
2019-05-25T12:00:23.760Z,37.60
2019-05-25T12:02:40.263Z,37.40
2019-05-25T12:05:09.732Z,37.50
2019-05-25T12:07:38.218Z,37.90
2019-05-25T12:10:07.269Z,36.80
2019-05-25T12:12:35.888Z,35.80
2019-05-25T12:15:06.673Z,37.30
2019-05-25T12:17:35.478Z,39.00
2019-05-25T12:20:05.318Z,40.00
2019-05-25T12:22:33.905Z,37.00
2019-05-25T12:25:02.605Z,36.60
2019-05-25T12:27:31.232Z,35.50
2019-05-25T12:29:59.830Z,35.80
2019-05-25T12:32:28.536Z,33.60
2019-05-25T12:34:57.129Z,32.80
2019-05-25T12:37:25.813Z,33.10
2019-05-25T12:39:54.458Z,30.30
2019-05-25T12:42:23.096Z,31.40
2019-05-25T12:44:51.587Z,32.30
2019-05-25T12:47:20.155Z,33.40
2019-05-25T12:49:50.977Z,33.70
2019-05-25T12:52:18.959Z,31.80
2019-05-25T12:54:47.513Z,33.80
2019-05-25T12:57:16.114Z,33.40
2019-05-25T12:59:44.751Z,33.90
2019-05-25T13:02:13.464Z,33.20
2019-05-25T13:04:42.090Z,33.70
2019-05-25T13:07:10.740Z,32.80
2019-05-25T13:09:39.318Z,31.30
2019-05-25T13:12:07.959Z,30.50
2019-05-25T13:14:36.598Z,30.40
2019-05-25T13:17:05.245Z,32.30
2019-05-25T13:19:33.902Z,31.40
2019-05-25T13:22:02.449Z,30.60
2019-05-25T13:24:31.113Z,33.00
2019-05-25T13:26:59.713Z,33.10
2019-05-25T13:29:28.330Z,32.70
2019-05-25T13:31:56.946Z,33.50
2019-05-25T13:34:25.504Z,33.30
2019-05-25T13:36:54.088Z,34.70
2019-05-25T13:39:22.705Z,34.90
2019-05-25T13:41:51.525Z,35.30
2019-05-25T13:44:20.294Z,35.00
2019-05-25T13:46:48.877Z,37.10
2019-05-25T13:49:17.445Z,35.30
2019-05-25T13:51:46.007Z,34.50
2019-05-25T13:54:14.572Z,34.80
2019-05-25T13:56:43.139Z,34.20
2019-05-25T13:59:11.693Z,34.10
2019-05-25T14:01:40.324Z,34.90
2019-05-25T14:04:08.968Z,34.10
2019-05-25T14:20:36.552Z,33.00
2019-05-25T14:23:05.315Z,33.70
2019-05-25T14:25:33.996Z,35.80
2019-05-25T14:28:02.510Z,34.80
2019-05-25T14:30:31.104Z,35.30
2019-05-25T14:32:59.656Z,35.20
2019-05-25T14:35:28.307Z,35.10
2019-05-25T14:37:56.951Z,34.70
2019-05-25T14:40:25.588Z,36.80
2019-05-25T14:42:54.147Z,36.90
2019-05-25T14:45:22.791Z,36.60
2019-05-25T14:47:51.356Z,36.10
2019-05-25T14:50:20.552Z,35.70
2019-05-25T14:52:49.110Z,36.00
2019-05-25T14:55:17.746Z,37.00
2019-05-25T14:57:46.399Z,36.10
2019-05-25T15:00:23.412Z,35.40
2019-05-25T15:02:52.047Z,37.10
2019-05-25T15:05:20.659Z,36.10
2019-05-25T15:07:49.159Z,35.00
2019-05-25T15:10:17.955Z,35.50
2019-05-25T15:12:46.667Z,35.70
2019-05-25T15:15:15.503Z,35.00
2019-05-25T15:17:44.095Z,36.80
2019-05-25T15:20:13.828Z,37.60
2019-05-25T15:22:42.467Z,37.90
2019-05-25T15:25:11.949Z,38.70
2019-05-25T15:27:40.517Z,38.00
2019-05-25T15:30:09.292Z,37.80
2019-05-25T15:32:37.990Z,37.60
2019-05-25T15:35:07.334Z,37.40
2019-05-25T15:37:35.874Z,37.70
2019-05-25T15:40:09.708Z,38.80
2019-05-25T15:42:38.247Z,37.90
2019-05-25T15:45:07.278Z,38.40
2019-05-25T15:47:35.839Z,38.50
2019-05-25T15:50:09.296Z,37.40
2019-05-25T15:52:37.960Z,38.10
2019-05-25T15:55:07.771Z,38.10
2019-05-25T15:57:36.498Z,38.40
2019-05-25T16:00:10.572Z,38.40
2019-05-25T16:02:39.300Z,38.80
2019-05-25T16:05:09.265Z,39.00
2019-05-25T16:07:40.152Z,38.70
2019-05-25T16:10:09.532Z,39.40
2019-05-25T16:12:38.097Z,39.70
2019-05-25T16:15:08.012Z,40.90
2019-05-25T16:17:36.922Z,42.00
2019-05-25T16:20:06.043Z,42.90
2019-05-25T16:22:34.867Z,41.90
2019-05-25T16:25:04.466Z,41.80
2019-05-25T16:27:33.073Z,42.50
2019-05-25T16:30:01.575Z,42.80
2019-05-25T16:32:30.233Z,42.90
2019-05-25T16:34:58.803Z,44.50
2019-05-25T16:37:27.395Z,44.20
2019-05-25T16:39:56.031Z,42.60
2019-05-25T16:42:24.675Z,42.50
2019-05-25T16:44:53.334Z,43.30
2019-05-25T16:47:21.991Z,43.40
2019-05-25T16:49:50.530Z,44.10
2019-05-25T16:52:19.142Z,43.80
2019-05-25T16:54:47.838Z,43.70
2019-05-25T16:57:16.342Z,44.10
2019-05-25T16:59:44.892Z,43.40
2019-05-25T17:02:13.657Z,43.90
2019-05-25T17:04:42.363Z,44.60
2019-05-25T17:07:10.910Z,44.80
2019-05-25T17:09:39.556Z,44.80
2019-05-25T17:12:08.477Z,44.60
2019-05-25T17:14:37.427Z,45.30
2019-05-25T17:17:06.047Z,45.50
2019-05-25T17:19:34.667Z,46.80
2019-05-25T17:22:03.516Z,46.50
2019-05-25T17:24:32.127Z,47.70
2019-05-25T17:27:00.685Z,47.60
2019-05-25T17:29:29.240Z,47.80
2019-05-25T17:31:57.988Z,48.60
2019-05-25T17:34:26.736Z,48.70
2019-05-25T17:36:55.585Z,48.50
2019-05-25T17:39:25.402Z,48.60
2019-05-25T17:41:53.976Z,48.50
2019-05-25T17:44:22.662Z,48.40
2019-05-25T17:46:53.443Z,47.80
2019-05-25T17:49:22.006Z,47.60
2019-05-25T17:51:50.647Z,48.50
2019-05-25T17:54:19.270Z,50.10
2019-05-25T17:56:47.955Z,49.20
2019-05-25T17:59:16.635Z,49.80
2019-05-25T18:01:45.243Z,48.60
2019-05-25T18:04:13.828Z,48.70
2019-05-25T18:06:42.460Z,49.30
2019-05-25T18:09:11.128Z,48.10
2019-05-25T18:11:39.603Z,47.80
2019-05-25T18:14:08.318Z,48.50
2019-05-25T18:16:36.957Z,48.80
2019-05-25T18:19:05.932Z,48.60
2019-05-25T18:21:34.700Z,47.50
2019-05-25T18:24:03.286Z,47.80
2019-05-25T18:26:31.929Z,49.20
2019-05-25T18:29:00.533Z,50.20
2019-05-25T18:31:29.108Z,50.50
2019-05-25T18:33:57.972Z,50.80
2019-05-25T18:36:26.659Z,49.30
2019-05-25T18:38:55.402Z,49.60
2019-05-25T18:41:24.558Z,49.90
2019-05-25T18:43:53.154Z,49.90
2019-05-25T18:46:21.821Z,50.00
2019-05-25T18:48:50.348Z,49.80
2019-05-25T18:51:19.031Z,49.20
2019-05-25T18:53:47.572Z,49.20
2019-05-25T18:56:16.250Z,49.60
2019-05-25T18:58:44.791Z,49.40
2019-05-25T19:01:13.360Z,50.20
2019-05-25T19:03:42.523Z,51.50
2019-05-25T19:06:11.249Z,52.80
2019-05-25T19:08:39.955Z,54.30
2019-05-25T19:11:08.507Z,54.20
2019-05-25T19:13:37.287Z,54.30
2019-05-25T19:16:05.973Z,55.00
2019-05-25T19:18:34.579Z,55.90
2019-05-25T19:21:03.127Z,55.40
2019-05-25T19:23:31.713Z,55.10
2019-05-25T19:26:00.310Z,55.10
2019-05-25T19:28:28.781Z,54.80
2019-05-25T19:30:57.294Z,54.10
2019-05-25T19:33:26.013Z,53.60
2019-05-25T19:35:54.750Z,53.10
2019-05-25T19:38:23.443Z,52.80
2019-05-25T19:40:52.081Z,54.70
2019-05-25T19:43:20.594Z,55.70
2019-05-25T19:45:49.302Z,55.60
2019-05-25T19:48:17.824Z,55.50
2019-05-25T19:50:46.428Z,56.10
2019-05-25T19:53:15.050Z,56.10
2019-05-25T19:55:43.746Z,57.10
2019-05-25T19:58:12.329Z,57.50
2019-05-25T20:00:41.071Z,57.30
2019-05-25T20:03:09.777Z,57.20
2019-05-25T20:05:38.391Z,58.20
2019-05-25T20:08:06.959Z,63.30
2019-05-25T20:10:35.561Z,64.00
2019-05-25T20:13:04.328Z,64.50
2019-05-25T20:15:32.978Z,65.00
2019-05-25T20:18:01.536Z,65.00
2019-05-25T20:20:30.209Z,65.90
2019-05-25T20:22:58.738Z,66.20
2019-05-25T20:25:27.461Z,66.10
2019-05-25T20:27:56.067Z,66.20
2019-05-25T20:30:24.655Z,66.40
2019-05-25T20:32:53.240Z,65.90
2019-05-25T20:35:32.308Z,66.60
2019-05-25T20:37:51.950Z,65.60
2019-05-25T20:40:20.782Z,65.00
2019-05-25T20:42:49.328Z,64.10
2019-05-25T20:45:17.992Z,63.50
2019-05-25T20:47:46.669Z,62.80
2019-05-25T20:50:15.726Z,61.20
2019-05-25T20:52:44.477Z,60.40
2019-05-25T20:55:13.256Z,60.10
2019-05-25T20:57:41.801Z,59.90
2019-05-25T21:00:11.135Z,61.60
2019-05-25T21:02:39.699Z,61.70
2019-05-25T21:05:11.489Z,59.50
2019-05-25T21:07:40.153Z,58.50
2019-05-25T21:10:08.994Z,58.20
2019-05-25T21:12:37.619Z,58.50
2019-05-25T21:15:08.294Z,58.40
2019-05-25T21:17:37.107Z,58.60
2019-05-25T21:20:07.010Z,58.60
2019-05-25T21:22:35.745Z,59.30
2019-05-25T21:25:09.449Z,60.20
2019-05-25T21:27:37.995Z,63.80
2019-05-25T21:30:09.338Z,65.00
2019-05-25T21:32:37.944Z,65.20
2019-05-25T21:35:07.127Z,66.20
2019-05-25T21:37:35.812Z,67.10
2019-05-25T21:40:07.255Z,66.70
2019-05-25T21:42:35.961Z,67.70
2019-05-25T21:45:06.284Z,69.80
2019-05-25T21:47:35.114Z,70.50
2019-05-25T21:50:04.583Z,70.80
2019-05-25T21:52:33.301Z,69.30
2019-05-25T21:55:01.945Z,69.30
2019-05-25T21:57:30.624Z,68.20
2019-05-25T21:59:59.268Z,69.60
2019-05-25T22:02:27.963Z,69.30
2019-05-25T22:04:56.785Z,70.30
2019-05-25T22:07:25.519Z,70.40
2019-05-25T22:09:54.063Z,71.70
2019-05-25T22:12:22.627Z,72.70
2019-05-25T22:14:51.211Z,71.50
2019-05-25T22:17:19.744Z,71.70
2019-05-25T22:19:48.330Z,72.30
2019-05-25T22:22:16.957Z,72.90
2019-05-25T22:24:45.532Z,73.40
2019-05-25T22:27:14.165Z,73.00
2019-05-25T22:29:42.899Z,73.90
2019-05-25T22:32:11.529Z,73.70
2019-05-25T22:34:40.167Z,73.60
2019-05-25T22:37:08.791Z,73.70
2019-05-25T22:39:37.330Z,74.10
2019-05-25T22:42:06.076Z,73.70
2019-05-25T22:44:34.683Z,72.60
2019-05-25T22:47:03.313Z,72.00
2019-05-25T22:49:31.875Z,72.70
2019-05-25T22:52:00.503Z,72.70
2019-05-25T22:54:29.128Z,71.80
2019-05-25T22:56:57.695Z,72.50
2019-05-25T22:59:26.264Z,74.60
2019-05-25T23:01:54.808Z,74.70
2019-05-25T23:04:23.329Z,75.10
2019-05-25T23:06:57.737Z,74.30
2019-05-25T23:09:23.667Z,73.90
2019-05-25T23:11:52.395Z,74.80
2019-05-25T23:14:20.982Z,74.80
2019-05-25T23:16:49.460Z,75.10
2019-05-25T23:19:17.983Z,74.80
2019-05-25T23:21:46.585Z,72.00
2019-05-25T23:24:15.206Z,72.60
2019-05-25T23:26:43.767Z,72.30
2019-05-25T23:29:12.313Z,72.00
2019-05-25T23:31:40.942Z,70.60
2019-05-25T23:34:09.547Z,69.30
2019-05-25T23:36:38.140Z,68.10
2019-05-25T23:39:07.116Z,69.20
2019-05-25T23:41:35.778Z,72.20
2019-05-25T23:44:04.472Z,71.40
2019-05-25T23:46:33.104Z,70.60
2019-05-25T23:49:01.813Z,70.90
2019-05-25T23:51:32.061Z,71.60
2019-05-25T23:54:00.718Z,71.20
2019-05-25T23:56:29.449Z,70.60
2019-05-25T23:58:57.922Z,70.20
